createdAt,value
2018-03-03T00:03:35.424Z,94.60
2018-03-03T00:08:31.254Z,94.10
2018-03-03T00:13:25.582Z,94.10
2018-03-03T00:18:21.078Z,94.50
2018-03-03T00:23:15.476Z,94.50
2018-03-03T00:28:09.814Z,94.70
2018-03-03T00:33:04.853Z,94.50
2018-03-03T00:37:59.296Z,94.50
2018-03-03T00:42:53.735Z,94.50
2018-03-03T00:47:48.852Z,94.20
2018-03-03T00:52:44.042Z,94.10
2018-03-03T00:57:38.577Z,94.10
2018-03-03T01:02:33.695Z,95.50
2018-03-03T01:07:28.074Z,95.50
2018-03-03T01:12:22.879Z,95.60
2018-03-03T01:17:17.273Z,96.00
2018-03-03T01:22:11.603Z,95.70
2018-03-03T01:27:06.141Z,95.70
2018-03-03T01:32:01.528Z,98.00
2018-03-03T01:36:55.924Z,98.00
2018-03-03T01:41:50.486Z,98.40
2018-03-03T01:46:44.879Z,98.30
2018-03-03T01:51:43.885Z,99.30
2018-03-03T01:56:39.224Z,99.90
2018-03-03T02:01:33.585Z,99.80
2018-03-03T02:06:28.135Z,99.60
2018-03-03T02:11:22.491Z,98.90
2018-03-03T02:16:16.831Z,98.80
2018-03-03T02:21:11.283Z,98.40
2018-03-03T02:26:05.611Z,98.30
2018-03-03T02:31:00.155Z,98.30
2018-03-03T02:35:54.745Z,97.60
2018-03-03T02:40:50.029Z,97.00
2018-03-03T02:45:44.412Z,97.00
2018-03-03T02:50:38.772Z,96.70
2018-03-03T02:55:33.888Z,96.10
2018-03-03T03:00:28.995Z,96.00
2018-03-03T03:05:24.095Z,95.60
2018-03-03T03:10:18.613Z,95.50
2018-03-03T03:15:12.954Z,95.60
2018-03-03T03:20:07.504Z,95.60
2018-03-03T03:25:01.942Z,95.50
2018-03-03T03:29:57.052Z,94.80
2018-03-03T03:34:52.179Z,94.40
2018-03-03T03:39:47.287Z,94.10
2018-03-03T03:44:41.749Z,94.10
2018-03-03T03:49:35.881Z,94.00
2018-03-03T03:54:31.206Z,93.80
2018-03-03T03:59:25.521Z,93.80
2018-03-03T04:04:20.646Z,93.60
2018-03-03T04:09:15.714Z,93.60
2018-03-03T04:14:10.049Z,93.60
2018-03-03T04:19:05.881Z,93.30
2018-03-03T04:23:59.995Z,93.30
2018-03-03T04:28:54.927Z,93.20
2018-03-03T04:33:49.840Z,93.00
2018-03-03T04:38:44.709Z,92.90
2018-03-03T04:43:38.881Z,92.80
2018-03-03T04:48:33.034Z,92.90
2018-03-03T04:53:28.178Z,92.40
2018-03-03T05:14:21.944Z,91.80
2018-03-03T05:19:21.647Z,91.80
2018-03-03T05:40:29.785Z,91.70
2018-03-03T05:45:27.926Z,91.40
2018-03-03T06:06:29.025Z,91.20
2018-03-03T06:11:23.345Z,91.40
2018-03-03T06:16:18.051Z,91.20
2018-03-03T06:21:12.414Z,91.30
2018-03-03T06:26:06.740Z,91.10
2018-03-03T06:31:01.078Z,90.70
2018-03-03T06:35:55.442Z,90.40
2018-03-03T06:40:49.789Z,90.50
2018-03-03T06:45:44.148Z,90.20
2018-03-03T06:50:38.683Z,90.20
2018-03-03T06:55:32.973Z,90.00
2018-03-03T07:00:27.307Z,90.20
2018-03-03T07:05:23.121Z,89.50
2018-03-03T07:10:17.953Z,90.00
2018-03-03T07:15:23.749Z,88.90
2018-03-03T07:20:21.553Z,88.80
2018-03-03T07:25:16.042Z,88.50
2018-03-03T07:30:10.394Z,88.40
2018-03-03T07:35:05.007Z,87.10
2018-03-03T07:39:59.523Z,87.30
2018-03-03T07:44:53.827Z,86.80
2018-03-03T07:49:47.968Z,87.00
2018-03-03T07:54:42.336Z,86.40
2018-03-03T07:59:37.661Z,85.40
2018-03-03T08:04:31.839Z,85.30
2018-03-03T08:09:26.459Z,85.80
2018-03-03T08:14:21.666Z,85.00
2018-03-03T08:19:16.194Z,85.00
2018-03-03T08:24:10.495Z,85.00
2018-03-03T08:29:04.800Z,85.10
2018-03-03T08:34:00.210Z,82.70
2018-03-03T08:38:55.313Z,81.50
2018-03-03T08:43:49.739Z,81.50
2018-03-03T08:48:44.307Z,80.30
2018-03-03T08:53:38.622Z,78.30
2018-03-03T08:58:35.263Z,77.00
2018-03-03T09:08:28.875Z,75.20
2018-03-03T09:13:23.368Z,76.00
2018-03-03T09:18:17.979Z,75.30
2018-03-03T09:23:12.277Z,76.80
2018-03-03T09:28:06.667Z,76.40
2018-03-03T09:33:01.919Z,75.10
2018-03-03T09:37:56.598Z,75.10
2018-03-03T09:42:51.987Z,70.30
2018-03-03T09:47:46.618Z,70.30
2018-03-03T09:52:42.750Z,62.30
2018-03-03T09:57:37.968Z,60.80
2018-03-03T10:02:32.712Z,60.70
2018-03-03T10:07:27.981Z,62.10
2018-03-03T10:12:22.855Z,62.10
2018-03-03T10:17:17.307Z,63.10
2018-03-03T10:22:12.073Z,62.50
2018-03-03T10:27:06.981Z,65.30
2018-03-03T10:32:01.299Z,65.20
2018-03-03T10:36:56.211Z,67.50
2018-03-03T10:41:50.782Z,67.50
2018-03-03T10:46:45.092Z,67.00
2018-03-03T10:51:39.226Z,68.00
2018-03-03T10:56:34.306Z,70.50
2018-03-03T11:01:29.001Z,70.30
2018-03-03T11:06:24.151Z,71.30
2018-03-03T11:11:18.508Z,70.40
2018-03-03T11:16:12.839Z,71.00
2018-03-03T11:21:07.655Z,70.40
2018-03-03T11:26:02.950Z,70.90
2018-03-03T11:30:57.679Z,71.80
2018-03-03T11:35:52.290Z,73.10
2018-03-03T11:40:47.137Z,73.70
2018-03-03T11:45:42.201Z,74.60
2018-03-03T11:50:36.570Z,74.50
2018-03-03T11:55:31.638Z,74.20
2018-03-03T12:00:26.021Z,74.20
2018-03-03T12:05:20.744Z,73.50
2018-03-03T12:10:15.440Z,74.00
2018-03-03T12:15:10.085Z,73.40
2018-03-03T12:20:04.463Z,74.30
2018-03-03T12:24:58.879Z,73.80
2018-03-03T12:29:53.575Z,73.90
2018-03-03T12:34:48.651Z,72.00
2018-03-03T12:39:43.880Z,71.50
2018-03-03T12:44:38.967Z,70.80
2018-03-03T12:49:33.646Z,70.80
2018-03-03T12:54:28.145Z,71.00
2018-03-03T12:59:22.481Z,72.00
2018-03-03T13:04:17.882Z,71.60
2018-03-03T13:09:12.215Z,71.60
2018-03-03T13:14:06.928Z,71.60
2018-03-03T13:19:02.973Z,71.90
2018-03-03T13:23:57.291Z,71.90
2018-03-03T13:28:52.678Z,72.50
2018-03-03T13:33:47.889Z,72.50
2018-03-03T13:38:42.260Z,73.30
2018-03-03T13:43:37.552Z,73.90
2018-03-03T13:48:32.657Z,71.40
2018-03-03T13:53:27.436Z,71.40
2018-03-03T13:58:22.865Z,70.80
2018-03-03T14:03:17.726Z,70.60
2018-03-03T14:08:12.046Z,69.60
2018-03-03T14:13:07.343Z,68.50
2018-03-03T14:18:02.464Z,68.60
2018-03-03T14:22:57.176Z,68.70
2018-03-03T14:27:52.149Z,69.20
2018-03-03T14:32:46.496Z,69.10
2018-03-03T14:37:41.714Z,69.40
2018-03-03T14:42:36.182Z,69.30
2018-03-03T14:47:30.764Z,69.70
2018-03-03T14:52:25.099Z,70.30
2018-03-03T14:57:19.561Z,70.20
2018-03-03T15:02:15.449Z,71.40
2018-03-03T15:07:10.143Z,71.40
2018-03-03T15:12:04.459Z,71.90
2018-03-03T15:16:58.859Z,72.70
2018-03-03T15:21:53.192Z,73.70
2018-03-03T15:26:48.479Z,74.20
2018-03-03T15:31:45.070Z,74.00
2018-03-03T15:36:39.476Z,74.20
2018-03-03T15:41:34.856Z,75.40
2018-03-03T15:46:29.302Z,75.20
2018-03-03T15:51:23.662Z,75.40
2018-03-03T15:56:17.978Z,76.20
2018-03-03T16:01:12.334Z,76.80
2018-03-03T16:06:07.413Z,77.50
2018-03-03T16:11:01.723Z,77.50
2018-03-03T16:15:56.461Z,78.00
2018-03-03T16:20:51.016Z,78.20
2018-03-03T16:25:45.372Z,79.00
2018-03-03T16:30:39.971Z,79.00
2018-03-03T16:35:35.124Z,79.50
2018-03-03T16:40:29.589Z,79.40
2018-03-03T16:45:24.250Z,80.50
2018-03-03T16:50:18.691Z,81.10
2018-03-03T16:55:12.980Z,81.50
2018-03-03T17:00:07.369Z,81.90
2018-03-03T17:05:01.678Z,83.20
2018-03-03T17:09:56.434Z,83.60
2018-03-03T17:14:50.994Z,82.80
2018-03-03T17:19:46.136Z,83.30
2018-03-03T17:24:40.489Z,83.20
2018-03-03T17:29:35.090Z,83.70
2018-03-03T17:34:32.236Z,84.70
2018-03-03T17:39:27.392Z,85.70
2018-03-03T17:44:21.711Z,85.60
2018-03-03T17:49:16.098Z,86.90
2018-03-03T17:54:10.500Z,86.30
2018-03-03T17:59:04.733Z,86.40
2018-03-03T18:03:59.200Z,86.10
2018-03-03T18:08:53.585Z,86.00
2018-03-03T18:13:53.900Z,86.00
2018-03-03T18:18:48.456Z,86.00
2018-03-03T18:23:42.897Z,86.40
2018-03-03T18:28:37.627Z,86.40
2018-03-03T18:33:31.957Z,86.70
2018-03-03T18:38:26.868Z,86.50
2018-03-03T18:43:22.107Z,86.80
2018-03-03T18:48:16.437Z,86.70
2018-03-03T18:53:10.765Z,86.70
2018-03-03T18:58:06.569Z,87.30
2018-03-03T19:03:00.936Z,87.30
2018-03-03T19:07:55.631Z,87.60
2018-03-03T19:12:50.697Z,87.80
2018-03-03T19:17:45.050Z,87.80
2018-03-03T19:22:40.157Z,87.40
2018-03-03T19:27:34.546Z,87.40
2018-03-03T19:32:28.871Z,87.30
2018-03-03T19:37:23.960Z,88.00
2018-03-03T19:42:18.265Z,87.20
2018-03-03T19:47:12.698Z,86.90
2018-03-03T19:52:07.604Z,86.80
2018-03-03T19:57:02.739Z,86.60
2018-03-03T20:01:57.841Z,86.80
2018-03-03T20:06:52.921Z,87.00
2018-03-03T20:11:47.329Z,87.00
2018-03-03T20:16:41.631Z,86.60
2018-03-03T20:21:35.946Z,86.10
2018-03-03T20:26:30.277Z,85.80
2018-03-03T20:31:25.377Z,85.70
2018-03-03T20:36:19.705Z,85.70
2018-03-03T20:41:14.785Z,86.40
2018-03-03T20:46:09.102Z,86.40
2018-03-03T20:51:03.471Z,86.40
2018-03-03T20:55:57.791Z,86.20
2018-03-03T21:00:52.115Z,86.90
2018-03-03T21:05:47.394Z,86.00
2018-03-03T21:10:41.515Z,86.00
2018-03-03T21:15:35.901Z,86.00
2018-03-03T21:20:30.263Z,86.00
2018-03-03T21:25:25.366Z,85.60
2018-03-03T21:30:20.660Z,85.60
2018-03-03T21:35:14.968Z,85.60
2018-03-03T21:40:09.421Z,86.10
2018-03-03T21:45:03.759Z,85.10
2018-03-03T21:49:58.066Z,85.20
2018-03-03T21:54:52.558Z,85.20
2018-03-03T21:59:46.935Z,85.20
2018-03-03T22:04:41.257Z,85.00
2018-03-03T22:09:35.664Z,84.60
2018-03-03T22:14:30.963Z,84.50
2018-03-03T22:19:25.702Z,84.50
2018-03-03T22:24:20.234Z,84.40
2018-03-03T22:29:14.849Z,84.50
2018-03-03T22:34:10.160Z,85.30
2018-03-03T22:39:04.050Z,85.30
2018-03-03T22:43:58.353Z,85.00
2018-03-03T22:48:52.645Z,84.30
2018-03-03T22:53:47.038Z,83.80
2018-03-03T22:58:41.353Z,83.90
2018-03-03T23:03:35.665Z,83.70
2018-03-03T23:08:29.979Z,84.60
2018-03-03T23:13:25.044Z,83.90
2018-03-03T23:18:19.616Z,84.00
2018-03-03T23:23:15.066Z,83.60
2018-03-03T23:28:09.562Z,83.60
2018-03-03T23:33:04.650Z,83.50
2018-03-03T23:37:59.908Z,83.60
2018-03-03T23:42:55.004Z,83.70
2018-03-03T23:47:50.421Z,83.70
2018-03-03T23:52:44.796Z,83.70
2018-03-03T23:57:38.941Z,84.20
